Time;durP1;ratioP1;P1;durP2;ratioP2;P2;SDS_P1;SDS_P2;PMS_P1;PMS_P2;Temp;Humidity;BMP_temperature;BMP_pressure;BME280_temperature;BME280_humidity;BME280_pressure;Samples;Min_cycle;Max_cycle;Signal;HPM_P1;HPM_P2
2022/07/02 00:01:01;;;;;;;1.35;0.88;;;;;;;;;;4996831;28;93377;-61
2022/07/02 00:03:30;;;;;;;1.10;1.00;;;;;;;;;;4997254;28;91757;-62
2022/07/02 00:05:58;;;;;;;1.75;1.00;;;;;;;;;;4996596;28;92877;-61
2022/07/02 00:08:24;;;;;;;1.65;0.90;;;;;;;;;;4999525;28;93247;-62
2022/07/02 00:10:51;;;;;;;1.77;0.90;;;;;;;;;;4995415;28;94998;-61
2022/07/02 00:13:19;;;;;;;0.80;0.80;;;;;;;;;;4992960;28;93796;-62
2022/07/02 00:15:45;;;;;;;0.95;0.85;;;;;;;;;;4983432;28;92804;-62
2022/07/02 00:18:12;;;;;;;0.90;0.90;;;;;;;;;;4996598;28;93207;-61
2022/07/02 00:20:40;;;;;;;0.98;0.95;;;;;;;;;;4996370;28;93417;-61
2022/07/02 00:23:06;;;;;;;1.13;0.80;;;;;;;;;;4996627;28;93103;-61
2022/07/02 00:25:36;;;;;;;1.42;0.80;;;;;;;;;;4996589;28;92929;-62
2022/07/02 00:28:03;;;;;;;2.08;1.05;;;;;;;;;;4997143;28;92849;-61
2022/07/02 00:30:29;;;;;;;1.73;0.93;;;;;;;;;;4999674;28;92447;-61
2022/07/02 00:32:55;;;;;;;1.38;0.85;;;;;;;;;;4996150;28;93486;-61
2022/07/02 00:35:22;;;;;;;1.60;1.00;;;;;;;;;;4994851;28;94831;-62
2022/07/02 00:37:49;;;;;;;0.95;0.85;;;;;;;;;;4996265;28;95581;-62
2022/07/02 00:40:16;;;;;;;1.58;0.90;;;;;;;;;;4996224;28;93569;-62
2022/07/02 00:42:42;;;;;;;0.80;0.80;;;;;;;;;;4996298;28;92357;-62
2022/07/02 00:45:09;;;;;;;1.63;1.10;;;;;;;;;;4996396;28;92936;-62
2022/07/02 00:47:35;;;;;;;1.23;0.88;;;;;;;;;;4996039;28;93239;-61
2022/07/02 00:50:05;;;;;;;2.00;1.20;;;;;;;;;;4999265;28;92437;-61
2022/07/02 00:52:32;;;;;;;1.13;1.00;;;;;;;;;;4996721;28;93020;-61
2022/07/02 00:54:58;;;;;;;1.38;0.90;;;;;;;;;;4996343;28;92336;-62
2022/07/02 00:57:25;;;;;;;2.90;1.35;;;;;;;;;;4996190;28;93598;-62
2022/07/02 00:59:51;;;;;;;3.15;0.98;;;;;;;;;;4994030;28;95663;-61
2022/07/02 01:02:21;;;;;;;1.13;0.88;;;;;;;;;;4996249;28;92448;-61
2022/07/02 01:04:48;;;;;;;1.23;0.90;;;;;;;;;;4996326;28;94356;-61
2022/07/02 01:07:15;;;;;;;1.13;0.70;;;;;;;;;;4995916;28;93763;-61
2022/07/02 01:12:30;;;;;;;1.33;0.90;;;;;;;;;;4999088;28;94057;-61
2022/07/02 01:14:57;;;;;;;1.10;0.98;;;;;;;;;;4994756;28;92530;-61
2022/07/02 01:17:23;;;;;;;0.98;0.85;;;;;;;;;;4996752;28;94154;-62
2022/07/02 01:19:50;;;;;;;1.23;1.00;;;;;;;;;;4995333;28;93465;-61
2022/07/02 01:22:16;;;;;;;1.05;0.80;;;;;;;;;;4995910;28;92484;-62
2022/07/02 01:24:43;;;;;;;1.23;0.88;;;;;;;;;;4994382;28;95090;-62
2022/07/02 01:27:10;;;;;;;0.88;0.80;;;;;;;;;;4995486;28;93669;-62
2022/07/02 01:29:36;;;;;;;1.45;0.90;;;;;;;;;;4995627;28;92412;-62
2022/07/02 01:32:03;;;;;;;1.50;0.80;;;;;;;;;;4996040;28;94260;-62
2022/07/02 01:34:33;;;;;;;1.55;0.90;;;;;;;;;;4998343;28;92404;-61
2022/07/02 01:36:59;;;;;;;1.00;0.90;;;;;;;;;;4994745;28;93417;-61
2022/07/02 01:39:26;;;;;;;1.15;1.00;;;;;;;;;;4995180;28;93437;-61
2022/07/02 01:41:52;;;;;;;1.80;0.90;;;;;;;;;;4995182;28;91651;-62
2022/07/02 01:44:18;;;;;;;0.93;0.90;;;;;;;;;;4995321;28;92446;-61
2022/07/02 01:46:45;;;;;;;1.42;0.82;;;;;;;;;;4995155;28;93486;-61
2022/07/02 01:49:11;;;;;;;1.60;0.80;;;;;;;;;;4993828;28;95057;-61
2022/07/02 01:51:38;;;;;;;2.10;0.82;;;;;;;;;;4995640;28;95360;-61
2022/07/02 01:54:04;;;;;;;1.02;0.93;;;;;;;;;;4994892;28;93420;-62
2022/07/02 01:56:33;;;;;;;1.20;0.93;;;;;;;;;;4998334;28;92391;-62
2022/07/02 01:59:00;;;;;;;2.20;0.90;;;;;;;;;;4995048;28;93843;-61
2022/07/02 02:01:26;;;;;;;0.75;0.73;;;;;;;;;;4995266;28;92334;-61
2022/07/02 02:03:52;;;;;;;2.08;0.93;;;;;;;;;;4994949;28;92500;-62
2022/07/02 02:06:19;;;;;;;0.93;0.80;;;;;;;;;;4995468;28;93032;-62
2022/07/02 02:08:45;;;;;;;1.48;0.80;;;;;;;;;;4995201;28;92512;-61
2022/07/02 02:11:11;;;;;;;2.08;0.90;;;;;;;;;;4994753;28;93179;-61
2022/07/02 02:13:38;;;;;;;1.17;0.88;;;;;;;;;;4993082;28;95812;-61
2022/07/02 02:16:05;;;;;;;1.35;0.80;;;;;;;;;;4994388;28;92430;-62
2022/07/02 02:18:32;;;;;;;0.98;0.93;;;;;;;;;;4997573;28;93554;-61
2022/07/02 02:20:58;;;;;;;2.13;0.90;;;;;;;;;;4995121;28;92433;-61
2022/07/02 02:23:24;;;;;;;2.85;0.70;;;;;;;;;;4995257;28;92362;-61
2022/07/02 02:25:51;;;;;;;1.45;0.82;;;;;;;;;;4994393;28;93741;-61
2022/07/02 02:28:17;;;;;;;1.40;0.90;;;;;;;;;;4995021;28;92455;-61
2022/07/02 02:30:43;;;;;;;4.53;1.10;;;;;;;;;;4995333;28;93180;-61
2022/07/02 02:33:09;;;;;;;1.58;0.80;;;;;;;;;;4994508;28;92574;-61
2022/07/02 02:35:36;;;;;;;5.15;0.93;;;;;;;;;;4994653;28;92439;-62
2022/07/02 02:38:02;;;;;;;1.23;1.05;;;;;;;;;;4993240;28;94748;-61
2022/07/02 02:40:28;;;;;;;0.93;0.70;;;;;;;;;;4997274;28;93541;-62
2022/07/02 02:42:54;;;;;;;1.40;1.00;;;;;;;;;;4994472;28;93154;-61
2022/07/02 02:45:21;;;;;;;1.13;1.00;;;;;;;;;;4994453;28;94203;-61
2022/07/02 02:47:47;;;;;;;0.93;0.93;;;;;;;;;;4995722;28;92435;-62
2022/07/02 02:50:13;;;;;;;1.13;1.02;;;;;;;;;;4998295;28;94887;-61
2022/07/02 02:52:40;;;;;;;0.85;0.80;;;;;;;;;;4997807;28;93493;-61
2022/07/02 02:55:06;;;;;;;2.00;0.95;;;;;;;;;;4998106;28;91658;-61
2022/07/02 02:57:32;;;;;;;0.95;0.85;;;;;;;;;;4996850;28;92656;-62
2022/07/02 02:59:59;;;;;;;0.70;0.65;;;;;;;;;;5000666;28;93965;-62
2022/07/02 03:02:25;;;;;;;1.60;0.95;;;;;;;;;;4996286;28;94801;-62
2022/07/02 03:04:51;;;;;;;0.73;0.70;;;;;;;;;;4996587;28;94548;-61
2022/07/02 03:07:17;;;;;;;1.10;0.95;;;;;;;;;;4998205;28;92355;-62
2022/07/02 03:09:44;;;;;;;1.48;0.85;;;;;;;;;;4997731;28;93294;-61
2022/07/02 03:12:11;;;;;;;3.20;1.05;;;;;;;;;;4997748;28;93765;-61
2022/07/02 03:14:37;;;;;;;2.25;1.00;;;;;;;;;;4997925;28;92627;-62
2022/07/02 03:17:04;;;;;;;1.17;1.08;;;;;;;;;;4997630;28;92487;-61
2022/07/02 03:19:30;;;;;;;2.70;1.27;;;;;;;;;;4998181;28;94368;-62
2022/07/02 03:21:56;;;;;;;1.30;0.85;;;;;;;;;;5000774;28;93060;-63
2022/07/02 03:24:23;;;;;;;1.15;0.77;;;;;;;;;;4996450;28;94813;-62
2022/07/02 03:26:49;;;;;;;1.42;0.82;;;;;;;;;;4996030;28;94935;-61
2022/07/02 03:29:22;;;;;;;1.02;0.90;;;;;;;;;;4996648;28;95775;-61
2022/07/02 03:31:48;;;;;;;0.90;0.80;;;;;;;;;;4997309;28;93759;-61
2022/07/02 03:34:15;;;;;;;1.15;0.95;;;;;;;;;;4997550;28;92553;-61
2022/07/02 03:36:41;;;;;;;2.55;0.80;;;;;;;;;;4997051;28;92557;-61
2022/07/02 03:39:07;;;;;;;1.08;0.90;;;;;;;;;;4997219;28;93721;-61
2022/07/02 03:41:34;;;;;;;3.72;0.95;;;;;;;;;;4997005;28;92539;-62
2022/07/02 03:44:00;;;;;;;0.88;0.85;;;;;;;;;;5000927;28;93982;-61
2022/07/02 03:46:26;;;;;;;1.23;0.80;;;;;;;;;;4997191;28;92407;-61
2022/07/02 03:48:52;;;;;;;0.90;0.80;;;;;;;;;;4997755;28;95938;-61
2022/07/02 03:51:19;;;;;;;1.50;0.82;;;;;;;;;;4995054;28;95783;-61
2022/07/02 03:53:45;;;;;;;1.00;0.90;;;;;;;;;;4997355;28;92456;-61
2022/07/02 03:56:11;;;;;;;1.45;0.90;;;;;;;;;;4997402;28;93313;-61
2022/07/02 03:58:38;;;;;;;1.20;1.00;;;;;;;;;;4996841;28;93531;-62
2022/07/02 04:01:04;;;;;;;1.17;0.82;;;;;;;;;;4996497;28;92772;-61
2022/07/02 04:03:30;;;;;;;1.00;0.80;;;;;;;;;;4996727;28;93245;-61
2022/07/02 04:05:57;;;;;;;1.55;0.90;;;;;;;;;;4998519;28;93440;-61
2022/07/02 04:08:23;;;;;;;0.93;0.80;;;;;;;;;;4996483;28;93956;-61
2022/07/02 04:10:49;;;;;;;1.95;0.80;;;;;;;;;;4996655;28;93306;-61
2022/07/02 04:13:16;;;;;;;1.50;0.85;;;;;;;;;;4996837;28;92449;-62
2022/07/02 04:15:42;;;;;;;0.85;0.85;;;;;;;;;;4994561;28;94861;-61
2022/07/02 04:18:08;;;;;;;1.23;0.90;;;;;;;;;;4996587;28;93876;-61
2022/07/02 04:20:35;;;;;;;4.82;1.13;;;;;;;;;;4996398;28;92460;-61
2022/07/02 04:23:01;;;;;;;1.05;0.90;;;;;;;;;;4996720;28;92356;-61
2022/07/02 04:25:28;;;;;;;1.40;1.10;;;;;;;;;;4996429;28;92524;-61
2022/07/02 04:27:55;;;;;;;1.00;0.80;;;;;;;;;;4999735;28;92457;-61
2022/07/02 04:30:21;;;;;;;1.05;0.90;;;;;;;;;;4996431;28;93356;-62
2022/07/02 04:32:48;;;;;;;1.30;1.20;;;;;;;;;;4997448;28;91712;-61
2022/07/02 04:35:14;;;;;;;0.82;0.82;;;;;;;;;;4996648;28;92279;-61
2022/07/02 04:37:40;;;;;;;1.15;0.80;;;;;;;;;;4996215;28;93794;-61
2022/07/02 04:40:07;;;;;;;1.90;1.10;;;;;;;;;;4995251;28;94736;-61
2022/07/02 04:42:33;;;;;;;0.82;0.82;;;;;;;;;;4996279;28;95635;-62
2022/07/02 04:45:00;;;;;;;1.23;0.90;;;;;;;;;;4996167;28;93328;-62
2022/07/02 04:47:26;;;;;;;1.00;0.90;;;;;;;;;;4995833;28;92365;-61
2022/07/02 04:49:52;;;;;;;1.40;0.90;;;;;;;;;;4999086;28;93554;-61
2022/07/02 04:52:19;;;;;;;2.25;1.17;;;;;;;;;;4996326;28;92387;-62
2022/07/02 04:54:45;;;;;;;1.02;0.90;;;;;;;;;;4996516;28;94258;-61
2022/07/02 04:57:11;;;;;;;1.17;0.88;;;;;;;;;;4996508;28;92471;-61
2022/07/02 04:59:37;;;;;;;1.75;1.00;;;;;;;;;;4996101;28;92419;-61
2022/07/02 05:02:04;;;;;;;1.05;0.77;;;;;;;;;;4996144;28;94192;-61
2022/07/02 05:04:30;;;;;;;2.28;0.80;;;;;;;;;;4993775;28;95801;-62
2022/07/02 05:06:57;;;;;;;1.40;0.95;;;;;;;;;;4995877;28;92741;-61
2022/07/02 05:09:23;;;;;;;2.70;1.17;;;;;;;;;;4998845;28;93315;-61
2022/07/02 05:11:50;;;;;;;1.67;0.90;;;;;;;;;;4994843;28;92382;-61
2022/07/02 05:14:16;;;;;;;1.63;0.95;;;;;;;;;;4995686;28;92367;-61
2022/07/02 05:16:42;;;;;;;1.30;0.70;;;;;;;;;;4995485;28;94517;-61
2022/07/02 05:19:09;;;;;;;1.95;0.90;;;;;;;;;;4995948;28;92380;-61
2022/07/02 05:21:37;;;;;;;1.13;0.80;;;;;;;;;;4995940;28;91629;-61
2022/07/02 05:24:04;;;;;;;1.15;0.80;;;;;;;;;;4995734;28;93441;-61
2022/07/02 05:26:30;;;;;;;0.80;0.80;;;;;;;;;;4995520;28;92465;-61
2022/07/02 05:28:56;;;;;;;1.05;0.68;;;;;;;;;;4994255;28;95031;-61
2022/07/02 05:31:23;;;;;;;2.25;0.90;;;;;;;;;;4998688;28;94464;-61
2022/07/02 05:33:49;;;;;;;0.77;0.70;;;;;;;;;;4994673;28;93107;-61
2022/07/02 05:36:15;;;;;;;0.80;0.80;;;;;;;;;;4995191;28;93202;-62
2022/07/02 05:38:41;;;;;;;1.67;0.82;;;;;;;;;;4995507;28;92369;-61
2022/07/02 05:41:08;;;;;;;1.92;1.00;;;;;;;;;;4995386;28;92925;-61
2022/07/02 05:43:34;;;;;;;1.67;1.13;;;;;;;;;;4995213;28;93258;-61
2022/07/02 05:46:01;;;;;;;1.73;0.80;;;;;;;;;;4995597;28;91737;-61
2022/07/02 05:48:27;;;;;;;0.85;0.80;;;;;;;;;;4995811;28;93203;-61
2022/07/02 05:50:54;;;;;;;1.45;1.00;;;;;;;;;;4995054;28;92422;-61
2022/07/02 05:53:20;;;;;;;0.85;0.68;;;;;;;;;;4997086;28;94842;-61
2022/07/02 05:55:46;;;;;;;0.93;0.90;;;;;;;;;;4995105;28;93249;-62
2022/07/02 05:58:13;;;;;;;3.15;1.00;;;;;;;;;;4995650;28;92736;-62
2022/07/02 06:00:39;;;;;;;1.75;1.10;;;;;;;;;;4995287;28;92505;-61
2022/07/02 06:03:05;;;;;;;1.40;0.65;;;;;;;;;;4994935;28;94472;-61
2022/07/02 06:08:17;;;;;;;1.13;0.70;;;;;;;;;;4995503;28;93888;-62
2022/07/02 06:10:43;;;;;;;2.35;1.00;;;;;;;;;;4995183;28;92716;-62
2022/07/02 06:13:09;;;;;;;1.05;0.85;;;;;;;;;;4994873;28;92545;-61
2022/07/02 06:15:36;;;;;;;0.85;0.70;;;;;;;;;;4997612;28;92985;-61
2022/07/02 06:18:02;;;;;;;1.55;0.90;;;;;;;;;;4993716;28;94855;-62
2022/07/02 06:20:28;;;;;;;1.15;0.90;;;;;;;;;;4993830;28;95552;-61
2022/07/02 06:22:55;;;;;;;1.80;0.93;;;;;;;;;;4994568;28;94787;-61
2022/07/02 06:25:21;;;;;;;2.35;1.08;;;;;;;;;;4993586;28;92454;-62
2022/07/02 06:27:47;;;;;;;0.90;0.90;;;;;;;;;;4995091;28;92932;-62
2022/07/02 06:30:14;;;;;;;2.67;0.80;;;;;;;;;;4994984;28;94438;-61
2022/07/02 06:32:40;;;;;;;2.10;1.08;;;;;;;;;;4994742;28;92445;-61
2022/07/02 06:35:06;;;;;;;3.88;0.98;;;;;;;;;;4995129;28;92888;-62
2022/07/02 06:37:33;;;;;;;1.70;1.00;;;;;;;;;;4997726;28;93281;-61
2022/07/02 06:39:59;;;;;;;1.50;0.95;;;;;;;;;;4994475;28;93039;-61
2022/07/02 06:42:28;;;;;;;2.90;0.90;;;;;;;;;;4992676;28;95886;-61
2022/07/02 06:44:56;;;;;;;1.45;0.90;;;;;;;;;;4994582;28;92425;-61
2022/07/02 06:47:24;;;;;;;0.60;0.60;;;;;;;;;;4974900;28;92483;-61
2022/07/02 06:49:50;;;;;;;1.65;0.90;;;;;;;;;;4974610;28;93640;-61
2022/07/02 06:52:17;;;;;;;1.42;0.93;;;;;;;;;;4974646;28;92406;-61
2022/07/02 06:54:43;;;;;;;2.38;1.00;;;;;;;;;;4974910;28;93216;-61
2022/07/02 06:57:10;;;;;;;2.45;1.10;;;;;;;;;;4974538;28;93238;-61
2022/07/02 06:59:36;;;;;;;2.05;1.00;;;;;;;;;;4978122;28;91690;-61
2022/07/02 07:02:03;;;;;;;1.00;0.90;;;;;;;;;;4974599;28;93828;-61
2022/07/02 07:04:38;;;;;;;1.40;0.80;;;;;;;;;;4974593;28;92497;-61
2022/07/02 07:07:05;;;;;;;0.85;0.85;;;;;;;;;;4972836;28;94819;-62
2022/07/02 07:09:34;;;;;;;2.58;0.80;;;;;;;;;;4974528;28;94831;-61
2022/07/02 07:12:01;;;;;;;0.80;0.73;;;;;;;;;;4974335;28;92455;-62
2022/07/02 07:14:28;;;;;;;1.75;0.80;;;;;;;;;;4987272;28;93135;-61
2022/07/02 07:16:55;;;;;;;1.75;1.10;;;;;;;;;;4993797;28;93437;-62
2022/07/02 07:19:21;;;;;;;0.80;0.70;;;;;;;;;;4997469;28;92357;-61
2022/07/02 07:21:48;;;;;;;2.78;0.77;;;;;;;;;;4993887;28;93517;-62
2022/07/02 07:24:14;;;;;;;1.00;0.80;;;;;;;;;;4994776;28;91667;-61
2022/07/02 07:26:40;;;;;;;1.92;0.95;;;;;;;;;;4994452;28;93313;-61
2022/07/02 07:29:07;;;;;;;4.32;1.00;;;;;;;;;;4993945;28;93576;-61
2022/07/02 07:31:34;;;;;;;1.50;0.75;;;;;;;;;;4992442;28;94848;-61
2022/07/02 07:34:01;;;;;;;1.00;0.70;;;;;;;;;;4994001;28;95559;-61
2022/07/02 07:36:27;;;;;;;1.63;1.05;;;;;;;;;;4997293;28;93486;-61
2022/07/02 07:38:53;;;;;;;1.13;0.80;;;;;;;;;;4997547;28;92327;-61
2022/07/02 07:41:20;;;;;;;1.13;0.80;;;;;;;;;;5000233;28;93372;-61
2022/07/02 07:43:47;;;;;;;1.30;0.80;;;;;;;;;;4997304;28;92394;-61
2022/07/02 07:46:13;;;;;;;2.03;0.90;;;;;;;;;;4997555;28;94077;-61
2022/07/02 07:48:39;;;;;;;0.65;0.63;;;;;;;;;;4997532;28;93642;-61
2022/07/02 07:51:11;;;;;;;2.20;0.90;;;;;;;;;;4997404;28;92393;-61
2022/07/02 07:53:37;;;;;;;1.27;0.70;;;;;;;;;;4996841;28;93372;-62
2022/07/02 07:56:04;;;;;;;1.13;0.90;;;;;;;;;;4995344;28;96212;-61
2022/07/02 07:58:30;;;;;;;0.77;0.60;;;;;;;;;;4996908;28;92439;-61
2022/07/02 08:00:56;;;;;;;1.33;0.70;;;;;;;;;;4997044;28;93073;-61
2022/07/02 08:03:22;;;;;;;3.10;0.98;;;;;;;;;;4999437;28;93596;-61
2022/07/02 08:05:54;;;;;;;0.93;0.88;;;;;;;;;;4997164;28;93084;-62
2022/07/02 08:08:21;;;;;;;1.00;0.60;;;;;;;;;;4996936;28;94241;-61
2022/07/02 08:10:47;;;;;;;1.23;0.60;;;;;;;;;;4996709;28;92453;-61
2022/07/02 08:13:14;;;;;;;0.80;0.55;;;;;;;;;;4997548;28;94099;-61
2022/07/02 08:15:40;;;;;;;0.60;0.60;;;;;;;;;;4996266;28;93413;-62
2022/07/02 08:18:08;;;;;;;0.50;0.50;;;;;;;;;;4996765;28;93180;-62
2022/07/02 08:20:35;;;;;;;1.35;0.90;;;;;;;;;;4995342;28;94732;-61
2022/07/02 08:23:01;;;;;;;0.90;0.70;;;;;;;;;;4996392;28;93512;-61
2022/07/02 08:25:27;;;;;;;1.10;0.65;;;;;;;;;;4999863;28;92386;-61
2022/07/02 08:27:54;;;;;;;1.35;0.70;;;;;;;;;;4996485;28;93074;-62
2022/07/02 08:30:20;;;;;;;0.77;0.77;;;;;;;;;;4996600;28;92387;-62
2022/07/02 08:32:46;;;;;;;0.65;0.50;;;;;;;;;;4996610;28;93186;-61
2022/07/02 08:35:12;;;;;;;1.27;0.80;;;;;;;;;;4996180;28;93619;-61
2022/07/02 08:37:39;;;;;;;0.50;0.50;;;;;;;;;;4997078;28;91682;-62
2022/07/02 08:40:05;;;;;;;0.60;0.60;;;;;;;;;;4996427;28;92794;-62
2022/07/02 08:42:32;;;;;;;1.13;0.60;;;;;;;;;;4996200;28;93483;-61
2022/07/02 08:45:00;;;;;;;0.40;0.40;;;;;;;;;;4994754;28;94845;-61
2022/07/02 08:47:27;;;;;;;1.27;0.60;;;;;;;;;;4999254;28;96854;-62
2022/07/02 08:49:54;;;;;;;0.80;0.57;;;;;;;;;;4996698;28;92437;-61
2022/07/02 08:52:21;;;;;;;1.48;0.70;;;;;;;;;;4996380;28;93181;-61
2022/07/02 08:54:51;;;;;;;0.60;0.60;;;;;;;;;;4995182;28;94389;-61
2022/07/02 08:57:18;;;;;;;0.50;0.50;;;;;;;;;;4995183;28;92457;-61
2022/07/02 08:59:44;;;;;;;1.15;0.77;;;;;;;;;;4995972;28;93204;-61
2022/07/02 09:02:13;;;;;;;1.05;0.60;;;;;;;;;;4996704;28;94164;-61
2022/07/02 09:04:42;;;;;;;0.60;0.57;;;;;;;;;;4995983;28;92476;-61
2022/07/02 09:07:11;;;;;;;1.23;0.80;;;;;;;;;;4998925;28;93140;-61
2022/07/02 09:09:37;;;;;;;1.27;0.60;;;;;;;;;;4993279;28;94806;-61
2022/07/02 09:12:07;;;;;;;0.70;0.70;;;;;;;;;;4995882;28;95488;-61
2022/07/02 09:14:33;;;;;;;0.77;0.70;;;;;;;;;;4995802;28;93268;-61
2022/07/02 09:17:00;;;;;;;0.90;0.70;;;;;;;;;;4995691;28;92399;-61
2022/07/02 09:19:26;;;;;;;0.82;0.65;;;;;;;;;;4995865;28;94207;-62
2022/07/02 09:21:52;;;;;;;1.23;0.52;;;;;;;;;;4995478;28;93604;-61
2022/07/02 09:24:31;;;;;;;0.70;0.70;;;;;;;;;;4995954;28;92487;-61
2022/07/02 09:26:58;;;;;;;0.50;0.50;;;;;;;;;;4996365;28;93056;-61
2022/07/02 09:29:24;;;;;;;0.60;0.50;;;;;;;;;;4998655;28;93618;-61
2022/07/02 09:31:51;;;;;;;0.40;0.40;;;;;;;;;;4994633;28;92995;-62
2022/07/02 09:34:27;;;;;;;0.70;0.50;;;;;;;;;;4993543;28;95081;-61
2022/07/02 09:36:54;;;;;;;0.55;0.55;;;;;;;;;;4996111;28;92349;-61
2022/07/02 09:39:26;;;;;;;1.23;0.60;;;;;;;;;;4995516;28;93153;-61
2022/07/02 09:41:53;;;;;;;1.05;0.50;;;;;;;;;;4995370;28;93530;-61
2022/07/02 09:44:19;;;;;;;0.98;0.57;;;;;;;;;;4995628;28;92384;-61
2022/07/02 09:46:45;;;;;;;1.13;0.60;;;;;;;;;;4995669;28;94184;-61
2022/07/02 09:49:12;;;;;;;0.70;0.70;;;;;;;;;;4995239;28;93441;-61
2022/07/02 09:51:48;;;;;;;0.80;0.70;;;;;;;;;;4998743;28;91766;-61
2022/07/02 09:54:18;;;;;;;0.85;0.70;;;;;;;;;;4995188;28;93434;-61
2022/07/02 09:56:52;;;;;;;0.43;0.43;;;;;;;;;;4995245;28;92436;-62
2022/07/02 09:59:18;;;;;;;0.95;0.60;;;;;;;;;;4993483;28;94908;-62
2022/07/02 10:01:45;;;;;;;0.35;0.32;;;;;;;;;;4994974;28;93682;-61
2022/07/02 10:04:11;;;;;;;1.15;0.50;;;;;;;;;;4994635;28;92850;-62
2022/07/02 10:06:38;;;;;;;1.15;0.60;;;;;;;;;;4995300;28;92921;-61
2022/07/02 10:09:04;;;;;;;1.75;0.60;;;;;;;;;;4994734;28;94095;-61
2022/07/02 10:11:31;;;;;;;0.90;0.50;;;;;;;;;;4995345;28;92372;-62
2022/07/02 10:13:58;;;;;;;0.65;0.50;;;;;;;;;;4996845;28;93957;-61
2022/07/02 10:16:25;;;;;;;1.20;0.60;;;;;;;;;;4995327;28;91956;-62
2022/07/02 10:18:52;;;;;;;1.23;0.60;;;;;;;;;;4994421;28;92465;-62
2022/07/02 10:21:18;;;;;;;0.32;0.30;;;;;;;;;;4994827;28;93816;-62
2022/07/02 10:23:45;;;;;;;0.52;0.50;;;;;;;;;;4993054;28;94782;-61
2022/07/02 10:26:12;;;;;;;0.93;0.60;;;;;;;;;;4995062;28;96554;-61
2022/07/02 10:28:38;;;;;;;0.60;0.57;;;;;;;;;;4994678;28;93251;-61
2022/07/02 10:31:06;;;;;;;1.88;0.70;;;;;;;;;;4994918;28;92980;-62
2022/07/02 10:33:52;;;;;;;0.60;0.45;;;;;;;;;;4994759;28;93529;-62
2022/07/02 10:36:19;;;;;;;0.52;0.30;;;;;;;;;;4997845;28;93521;-61
2022/07/02 10:38:46;;;;;;;1.15;0.50;;;;;;;;;;4994761;28;93245;-61
2022/07/02 10:41:12;;;;;;;1.02;0.50;;;;;;;;;;4995027;28;92800;-62
2022/07/02 10:43:39;;;;;;;0.88;0.50;;;;;;;;;;4994495;28;92757;-61
2022/07/02 10:46:05;;;;;;;0.40;0.40;;;;;;;;;;4994473;28;93338;-61
2022/07/02 10:48:52;;;;;;;0.73;0.47;;;;;;;;;;4992755;28;95757;-61
2022/07/02 10:51:18;;;;;;;0.52;0.47;;;;;;;;;;4994556;28;92298;-62
2022/07/02 10:53:48;;;;;;;0.50;0.47;;;;;;;;;;4994787;28;93486;-61
2022/07/02 10:56:15;;;;;;;0.93;0.40;;;;;;;;;;4994054;28;93452;-61
2022/07/02 10:58:41;;;;;;;0.68;0.43;;;;;;;;;;4997431;28;92458;-61
2022/07/02 11:01:09;;;;;;;1.00;0.50;;;;;;;;;;4994273;28;93266;-61
2022/07/02 11:03:35;;;;;;;0.43;0.43;;;;;;;;;;4994032;28;92433;-61
2022/07/02 11:06:03;;;;;;;0.95;0.45;;;;;;;;;;4994747;28;93196;-61
2022/07/02 11:08:44;;;;;;;0.55;0.50;;;;;;;;;;4993260;28;93195;-62
2022/07/02 11:11:12;;;;;;;0.45;0.40;;;;;;;;;;4997236;28;92401;-61
2022/07/02 11:13:40;;;;;;;0.57;0.40;;;;;;;;;;4996286;28;94799;-61
2022/07/02 11:16:39;;;;;;;0.70;0.60;;;;;;;;;;4996938;28;93558;-61
2022/07/02 11:19:06;;;;;;;0.40;0.40;;;;;;;;;;4987358;28;92679;-61
2022/07/02 11:21:32;;;;;;;0.73;0.60;;;;;;;;;;4997329;28;93078;-61
2022/07/02 11:23:59;;;;;;;0.45;0.30;;;;;;;;;;4997757;28;92413;-61
2022/07/02 11:26:27;;;;;;;0.40;0.40;;;;;;;;;;4997640;28;93139;-62
2022/07/02 11:28:54;;;;;;;1.15;0.47;;;;;;;;;;4997411;28;93351;-62
2022/07/02 11:31:21;;;;;;;1.05;0.40;;;;;;;;;;4996927;28;91726;-62
2022/07/02 11:33:49;;;;;;;0.90;0.40;;;;;;;;;;4997523;28;92445;-61
2022/07/02 11:36:22;;;;;;;0.85;0.50;;;;;;;;;;4996999;28;93406;-61
2022/07/02 11:38:49;;;;;;;0.63;0.55;;;;;;;;;;4996039;28;94818;-61
2022/07/02 11:41:17;;;;;;;1.10;0.63;;;;;;;;;;4999163;28;96787;-61
2022/07/02 11:43:46;;;;;;;0.68;0.50;;;;;;;;;;4997324;28;92376;-61
2022/07/02 11:46:13;;;;;;;0.95;0.60;;;;;;;;;;4996902;28;93431;-62
2022/07/02 11:48:40;;;;;;;1.02;0.50;;;;;;;;;;4997042;28;92496;-62
2022/07/02 11:51:07;;;;;;;2.08;0.50;;;;;;;;;;4997459;28;92432;-61
2022/07/02 11:53:33;;;;;;;1.33;0.90;;;;;;;;;;4997182;28;92312;-62
2022/07/02 11:56:04;;;;;;;2.40;0.50;;;;;;;;;;4997538;28;93125;-61
2022/07/02 11:58:59;;;;;;;2.20;0.55;;;;;;;;;;4997257;28;92377;-62
2022/07/02 12:01:26;;;;;;;1.00;0.55;;;;;;;;;;4987584;28;92936;-61
2022/07/02 12:03:55;;;;;;;0.90;0.50;;;;;;;;;;4998139;28;96311;-61
2022/07/02 12:06:23;;;;;;;0.50;0.50;;;;;;;;;;4996661;28;96533;-62
2022/07/02 12:08:53;;;;;;;0.47;0.40;;;;;;;;;;4996688;28;93260;-62
2022/07/02 12:11:20;;;;;;;0.50;0.50;;;;;;;;;;4996936;28;92474;-62
2022/07/02 12:13:47;;;;;;;0.80;0.45;;;;;;;;;;4989495;28;94215;-61
2022/07/02 12:16:14;;;;;;;1.40;0.40;;;;;;;;;;4987689;28;94274;-61
2022/07/02 12:18:40;;;;;;;0.35;0.35;;;;;;;;;;4997144;28;92480;-61
2022/07/02 12:21:10;;;;;;;0.63;0.50;;;;;;;;;;4996578;28;92091;-61
2022/07/02 12:23:47;;;;;;;0.85;0.40;;;;;;;;;;4996547;28;94542;-61
2022/07/02 12:26:24;;;;;;;2.53;0.50;;;;;;;;;;4998830;28;92498;-61
2022/07/02 12:31:43;;;;;;;0.45;0.45;;;;;;;;;;4996535;28;92429;-61
2022/07/02 12:34:09;;;;;;;0.80;0.43;;;;;;;;;;4996238;28;93101;-61
2022/07/02 12:36:46;;;;;;;0.88;0.57;;;;;;;;;;4996351;28;92839;-61
2022/07/02 12:39:12;;;;;;;2.13;0.70;;;;;;;;;;4996602;28;92387;-62
2022/07/02 12:41:39;;;;;;;1.35;0.77;;;;;;;;;;4996570;28;93128;-62
2022/07/02 12:44:05;;;;;;;1.23;0.50;;;;;;;;;;4996601;28;94521;-61
2022/07/02 12:46:31;;;;;;;1.75;0.60;;;;;;;;;;4996614;28;91643;-61
2022/07/02 12:48:58;;;;;;;0.90;0.50;;;;;;;;;;4998450;28;93359;-61
2022/07/02 12:51:24;;;;;;;0.90;0.60;;;;;;;;;;4996398;28;92414;-61
2022/07/02 12:53:57;;;;;;;0.43;0.40;;;;;;;;;;4995032;28;94825;-61
2022/07/02 12:56:23;;;;;;;0.50;0.50;;;;;;;;;;4996129;28;93509;-62
2022/07/02 12:58:50;;;;;;;2.80;0.68;;;;;;;;;;4996200;28;92437;-61
2022/07/02 13:01:16;;;;;;;3.47;0.50;;;;;;;;;;4995838;28;93001;-61
2022/07/02 13:03:42;;;;;;;0.40;0.40;;;;;;;;;;4995545;28;92423;-61
2022/07/02 13:06:09;;;;;;;0.45;0.45;;;;;;;;;;4996054;28;92424;-61
2022/07/02 13:08:35;;;;;;;0.40;0.40;;;;;;;;;;4996302;28;94327;-62
2022/07/02 13:11:03;;;;;;;1.50;0.60;;;;;;;;;;4999262;28;92505;-61
2022/07/02 13:13:29;;;;;;;1.00;0.50;;;;;;;;;;4996144;28;92380;-61
2022/07/02 13:16:02;;;;;;;2.95;0.50;;;;;;;;;;4995123;28;93683;-61
2022/07/02 13:18:28;;;;;;;0.50;0.50;;;;;;;;;;4994452;28;94838;-61
2022/07/02 13:20:55;;;;;;;0.75;0.43;;;;;;;;;;4995947;28;96721;-61
2022/07/02 13:23:21;;;;;;;1.73;0.57;;;;;;;;;;4995381;28;93590;-61
2022/07/02 13:25:47;;;;;;;1.83;0.77;;;;;;;;;;4994669;28;92981;-62
2022/07/02 13:28:13;;;;;;;0.30;0.30;;;;;;;;;;4995754;28;92943;-62
2022/07/02 13:30:40;;;;;;;0.85;0.52;;;;;;;;;;4998930;28;93314;-61
2022/07/02 13:33:06;;;;;;;0.50;0.50;;;;;;;;;;4994812;28;94149;-61
2022/07/02 13:35:32;;;;;;;0.43;0.43;;;;;;;;;;4995956;28;92534;-61
2022/07/02 13:37:59;;;;;;;1.65;0.50;;;;;;;;;;4995890;28;92781;-62
2022/07/02 13:40:25;;;;;;;0.47;0.40;;;;;;;;;;4995589;28;93140;-61
2022/07/02 13:42:52;;;;;;;0.50;0.40;;;;;;;;;;4992993;28;96029;-62
2022/07/02 13:45:18;;;;;;;1.85;0.65;;;;;;;;;;4995554;28;92531;-61
2022/07/02 13:47:44;;;;;;;0.50;0.50;;;;;;;;;;4995406;28;93156;-61
2022/07/02 13:50:12;;;;;;;0.65;0.60;;;;;;;;;;4995270;28;93473;-61
2022/07/02 13:52:39;;;;;;;0.75;0.50;;;;;;;;;;4998685;28;92464;-62
2022/07/02 13:55:05;;;;;;;0.75;0.47;;;;;;;;;;4994056;28;93314;-62
2022/07/02 13:57:32;;;;;;;0.63;0.40;;;;;;;;;;4995098;28;92570;-61
2022/07/02 13:59:58;;;;;;;0.40;0.40;;;;;;;;;;4995903;28;92960;-62
2022/07/02 14:02:24;;;;;;;0.60;0.60;;;;;;;;;;4994906;28;92395;-62
2022/07/02 14:04:52;;;;;;;0.43;0.40;;;;;;;;;;4995274;28;92817;-61
2022/07/02 14:07:19;;;;;;;0.50;0.50;;;;;;;;;;4993702;28;95123;-61
2022/07/02 14:09:45;;;;;;;0.70;0.55;;;;;;;;;;4995163;28;94242;-61
2022/07/02 14:12:12;;;;;;;0.85;0.68;;;;;;;;;;4994735;28;92500;-62
2022/07/02 14:14:38;;;;;;;0.30;0.30;;;;;;;;;;4997889;28;93057;-62
2022/07/02 14:17:05;;;;;;;0.70;0.50;;;;;;;;;;4994622;28;92486;-61
2022/07/02 14:19:32;;;;;;;0.38;0.38;;;;;;;;;;4995108;28;94247;-61
2022/07/02 14:21:59;;;;;;;0.55;0.55;;;;;;;;;;4994792;28;93533;-62
2022/07/02 14:24:25;;;;;;;0.60;0.40;;;;;;;;;;4995244;28;93255;-63
2022/07/02 14:26:52;;;;;;;1.05;0.50;;;;;;;;;;4994990;28;93588;-61
2022/07/02 14:29:18;;;;;;;0.73;0.40;;;;;;;;;;4994898;28;93475;-62
2022/07/02 14:31:46;;;;;;;0.82;0.60;;;;;;;;;;4993488;28;94852;-62
2022/07/02 14:34:17;;;;;;;0.50;0.50;;;;;;;;;;4994806;28;95649;-62
2022/07/02 14:36:44;;;;;;;1.02;0.40;;;;;;;;;;4997997;28;94796;-61
2022/07/02 14:39:10;;;;;;;0.55;0.55;;;;;;;;;;4994645;28;93501;-61
2022/07/02 14:41:37;;;;;;;0.35;0.35;;;;;;;;;;4994396;28;93243;-63
2022/07/02 14:44:03;;;;;;;3.13;0.50;;;;;;;;;;4995933;28;92390;-62
2022/07/02 14:46:30;;;;;;;0.40;0.40;;;;;;;;;;4998124;28;93399;-62
2022/07/02 14:48:57;;;;;;;0.55;0.50;;;;;;;;;;4998399;28;92682;-62
2022/07/02 14:51:23;;;;;;;0.60;0.50;;;;;;;;;;4998574;28;92414;-62